Time;durP1;ratioP1;P1;durP2;ratioP2;P2;SDS_P1;SDS_P2;PMS_P1;PMS_P2;Temp;Humidity;BMP_temperature;BMP_pressure;BME280_temperature;BME280_humidity;BME280_pressure;Samples;Min_cycle;Max_cycle;Signal;HPM_P1;HPM_P2
2022/12/11 00:00:43;;;;;;;27.40;12.67;;;;;;;-1.87;83.58;100016.72;4970404;28;20289;-68
2022/12/11 00:03:09;;;;;;;27.63;13.53;;;;;;;-1.76;83.16;100006.94;4968484;28;20236;-69
2022/12/11 00:05:42;;;;;;;27.67;12.43;;;;;;;-1.87;83.57;100006.34;4971974;28;20205;-69
2022/12/11 00:08:08;;;;;;;27.10;13.17;;;;;;;-2.01;83.96;100000.34;4970232;28;20194;-68
2022/12/11 00:10:35;;;;;;;26.40;12.23;;;;;;;-2.10;84.32;100004.13;4969267;28;20201;-69
2022/12/11 00:13:03;;;;;;;27.73;12.87;;;;;;;-2.09;84.45;100022.38;4971934;28;20205;-69
2022/12/11 00:15:30;;;;;;;30.13;14.57;;;;;;;-2.14;84.81;100022.91;4954435;28;20208;-69
2022/12/11 00:17:56;;;;;;;26.33;12.37;;;;;;;-1.91;84.03;100019.94;4967479;28;20228;-68
2022/12/11 00:20:23;;;;;;;26.33;12.50;;;;;;;-1.90;83.75;100025.22;4971133;28;20951;-68
2022/12/11 00:22:49;;;;;;;28.13;12.80;;;;;;;-1.97;84.18;100023.09;4971254;28;20263;-68
2022/12/11 00:25:15;;;;;;;27.33;12.90;;;;;;;-1.99;84.32;100021.22;4966246;28;20260;-69
2022/12/11 00:27:45;;;;;;;29.53;13.33;;;;;;;-2.06;84.35;100016.47;4970778;28;20229;-67
2022/12/11 00:30:11;;;;;;;28.40;13.23;;;;;;;-2.04;84.90;100023.53;4971553;28;20217;-69
2022/12/11 00:32:38;;;;;;;25.17;13.00;;;;;;;-2.04;85.22;100017.44;4971092;28;20284;-69
2022/12/11 00:35:04;;;;;;;28.20;13.27;;;;;;;-2.05;85.42;100019.16;4970665;28;20202;-69
2022/12/11 00:37:31;;;;;;;27.77;13.33;;;;;;;-2.06;85.88;100003.50;4971069;28;20229;-68
2022/12/11 00:39:57;;;;;;;32.17;13.83;;;;;;;-1.94;85.44;100012.00;4970979;28;20224;-69
2022/12/11 00:42:24;;;;;;;31.53;13.07;;;;;;;-1.87;85.40;100026.19;4971223;28;20252;-69
2022/12/11 00:44:50;;;;;;;31.20;14.90;;;;;;;-1.88;85.59;100017.53;4968118;28;20621;-68
2022/12/11 00:47:16;;;;;;;29.23;14.63;;;;;;;-1.82;85.65;100022.16;4971354;28;20742;-68
2022/12/11 00:49:43;;;;;;;30.07;14.30;;;;;;;-1.79;86.06;100022.34;4971690;28;20255;-69
2022/12/11 00:52:16;;;;;;;30.53;14.70;;;;;;;-1.71;85.43;100019.34;4966577;28;20616;-69
2022/12/11 00:54:45;;;;;;;31.40;15.37;;;;;;;-1.65;84.84;100014.50;4968371;28;20201;-69
2022/12/11 00:57:11;;;;;;;31.70;14.37;;;;;;;-1.62;84.82;100017.25;4971135;28;20302;-69
2022/12/11 00:59:38;;;;;;;31.20;14.33;;;;;;;-1.52;84.45;100026.47;4970521;28;20313;-68
2022/12/11 01:02:04;;;;;;;30.17;14.97;;;;;;;-1.46;83.93;100025.91;4971087;28;20198;-71
2022/12/11 01:04:31;;;;;;;26.67;13.63;;;;;;;-1.40;83.85;100024.53;4969051;28;20205;-69
2022/12/11 01:06:57;;;;;;;30.20;14.77;;;;;;;-1.11;82.20;100025.22;4970125;28;20314;-69
2022/12/11 01:12:08;;;;;;;30.27;14.07;;;;;;;-1.27;82.34;100005.31;4969810;28;20235;-68
2022/12/11 01:14:35;;;;;;;28.03;14.10;;;;;;;-1.28;82.68;100001.81;4970795;28;20293;-67
2022/12/11 01:17:01;;;;;;;30.40;14.10;;;;;;;-1.20;83.27;100017.84;4969226;28;20643;-69
2022/12/11 01:19:28;;;;;;;34.70;15.00;;;;;;;-1.27;83.52;100003.59;4969007;28;20773;-68
2022/12/11 01:21:54;;;;;;;30.67;15.77;;;;;;;-1.19;83.98;100016.13;4968969;28;20300;-68
2022/12/11 01:24:21;;;;;;;31.70;14.97;;;;;;;-1.07;82.88;100021.97;4971061;28;20213;-69
2022/12/11 01:26:47;;;;;;;30.70;13.57;;;;;;;-1.03;82.31;100016.13;4970279;28;20661;-69
2022/12/11 01:29:14;;;;;;;28.37;13.70;;;;;;;-0.98;82.49;100025.94;4970010;28;20245;-69
2022/12/11 01:31:40;;;;;;;27.67;13.70;;;;;;;-1.07;82.36;100014.19;4970570;28;20232;-68
2022/12/11 01:34:06;;;;;;;27.83;13.47;;;;;;;-1.12;82.90;100018.25;4970412;28;20264;-69
2022/12/11 01:36:33;;;;;;;31.20;14.97;;;;;;;-1.16;83.13;100013.69;4970448;28;20195;-68
2022/12/11 01:38:59;;;;;;;32.23;13.73;;;;;;;-1.31;83.64;100008.56;4967212;28;20253;-67
2022/12/11 01:41:26;;;;;;;31.83;13.63;;;;;;;-1.26;84.03;100026.16;4970765;28;20201;-69
2022/12/11 01:44:27;;;;;;;29.37;14.00;;;;;;;-1.30;84.74;100018.13;4970288;28;20650;-69
2022/12/11 01:46:53;;;;;;;32.83;14.67;;;;;;;-1.37;85.03;100010.81;4969791;28;20319;-69
2022/12/11 01:49:24;;;;;;;36.47;16.17;;;;;;;-1.43;85.29;100023.47;4968944;28;20964;-69
2022/12/11 01:52:14;;;;;;;29.70;15.23;;;;;;;-1.50;85.18;100016.16;4970115;28;20226;-68
2022/12/11 01:54:42;;;;;;;39.37;16.07;;;;;;;-1.60;85.52;100013.06;4970568;28;20289;-69
2022/12/11 01:57:11;;;;;;;33.00;15.43;;;;;;;-1.64;85.81;100025.78;4969393;28;20236;-69
2022/12/11 01:59:40;;;;;;;30.03;14.27;;;;;;;-1.75;86.11;100012.19;4973642;28;20805;-69
2022/12/11 02:02:21;;;;;;;32.57;14.50;;;;;;;-1.78;86.57;100018.94;4973987;28;20770;-69
2022/12/11 02:04:48;;;;;;;32.13;14.87;;;;;;;-1.85;86.81;100022.88;4974515;28;20242;-68
2022/12/11 02:07:14;;;;;;;33.43;14.97;;;;;;;-1.91;87.05;100028.63;4972709;28;20215;-70
2022/12/11 02:09:44;;;;;;;32.33;15.23;;;;;;;-1.88;87.13;100012.34;4974073;28;20259;-69
2022/12/11 02:12:29;;;;;;;34.00;15.60;;;;;;;-1.86;87.52;100026.28;4973584;28;20209;-68
2022/12/11 02:15:10;;;;;;;33.60;15.17;;;;;;;-1.91;87.58;100030.31;4971650;28;20305;-69
2022/12/11 02:18:06;;;;;;;27.33;13.90;;;;;;;-1.93;88.07;100025.06;4973539;28;20197;-69
2022/12/11 02:20:36;;;;;;;35.33;14.60;;;;;;;-1.82;88.11;100036.03;4973677;28;20214;-69
2022/12/11 02:23:23;;;;;;;32.83;14.13;;;;;;;-1.68;87.90;100029.00;4969042;28;20206;-69
2022/12/11 02:25:59;;;;;;;29.97;14.23;;;;;;;-1.65;87.86;100030.06;4971807;28;20202;-68
2022/12/11 02:28:40;;;;;;;36.43;16.70;;;;;;;-1.49;87.22;100031.81;4968848;28;20229;-69
2022/12/11 02:31:18;;;;;;;33.63;16.77;;;;;;;-1.56;87.42;100034.00;4958199;28;20198;-68
2022/12/11 02:34:14;;;;;;;33.53;15.30;;;;;;;-1.55;87.59;100041.88;4974219;28;20223;-69
2022/12/11 02:36:44;;;;;;;35.23;15.00;;;;;;;-1.64;87.81;100028.38;4971713;28;20650;-69
2022/12/11 02:39:13;;;;;;;36.60;16.87;;;;;;;-1.62;87.95;100035.44;4973024;28;20246;-69
2022/12/11 02:41:45;;;;;;;36.67;16.47;;;;;;;-1.59;88.08;100032.13;4956237;28;20199;-69
2022/12/11 02:44:14;;;;;;;32.77;16.80;;;;;;;-1.61;88.00;100037.22;4972366;28;20197;-69
2022/12/11 02:46:43;;;;;;;35.23;16.50;;;;;;;-1.60;88.03;100038.13;4973353;28;20320;-69
2022/12/11 02:49:11;;;;;;;35.03;16.17;;;;;;;-1.70;88.37;100021.13;4972834;28;20577;-69
2022/12/11 02:51:42;;;;;;;37.53;17.13;;;;;;;-1.65;88.17;100021.38;4971859;28;20230;-69
2022/12/11 02:54:16;;;;;;;35.73;16.47;;;;;;;-1.60;88.49;100025.16;4972988;28;20256;-69
2022/12/11 02:56:55;;;;;;;39.97;17.87;;;;;;;-1.55;88.19;100021.09;4973376;28;20242;-68
2022/12/11 02:59:44;;;;;;;40.50;17.40;;;;;;;-1.51;87.84;100019.56;4973058;28;20257;-69
2022/12/11 03:02:12;;;;;;;34.10;15.67;;;;;;;-1.53;87.83;100016.00;4969516;28;20256;-70
2022/12/11 03:04:40;;;;;;;37.33;17.17;;;;;;;-1.44;87.25;100022.59;4973323;28;20198;-69
2022/12/11 03:07:11;;;;;;;36.43;16.63;;;;;;;-1.54;87.01;100015.09;4972587;28;20658;-69
2022/12/11 03:09:39;;;;;;;35.30;15.70;;;;;;;-1.53;87.10;100018.59;4970264;28;20231;-68
2022/12/11 03:12:08;;;;;;;36.60;16.90;;;;;;;-1.46;86.87;100015.53;4972769;28;20203;-70
2022/12/11 03:14:37;;;;;;;35.97;16.30;;;;;;;-1.51;86.98;100012.69;4972835;28;20666;-69
2022/12/11 03:17:22;;;;;;;37.20;16.47;;;;;;;-1.53;87.21;100032.47;4970622;28;20203;-69
2022/12/11 03:19:57;;;;;;;42.87;17.00;;;;;;;-1.38;86.54;100024.63;4971358;28;20231;-69
2022/12/11 03:22:32;;;;;;;38.90;16.53;;;;;;;-1.41;86.41;100027.03;4970774;28;20257;-69
2022/12/11 03:25:04;;;;;;;38.00;17.97;;;;;;;-1.37;86.41;100032.50;4972349;28;20233;-69
2022/12/11 03:27:41;;;;;;;34.90;15.47;;;;;;;-1.32;86.41;100022.34;4964481;28;20222;-69
2022/12/11 03:30:13;;;;;;;35.27;16.13;;;;;;;-1.30;86.24;100024.22;4972638;28;20219;-69
2022/12/11 03:32:56;;;;;;;38.63;17.70;;;;;;;-1.25;86.24;100032.25;4972278;28;20200;-69
2022/12/11 03:35:34;;;;;;;36.97;16.47;;;;;;;-1.22;86.06;100029.81;4969778;28;20233;-68
2022/12/11 03:38:06;;;;;;;37.90;17.40;;;;;;;-1.19;85.74;100026.53;4971062;28;20703;-69
2022/12/11 03:40:35;;;;;;;41.83;16.63;;;;;;;-1.24;85.68;100014.97;4972315;28;20235;-69
2022/12/11 03:43:03;;;;;;;34.70;16.47;;;;;;;-1.13;85.49;100027.75;4972300;28;20296;-68
2022/12/11 03:45:32;;;;;;;37.00;18.33;;;;;;;-1.14;85.42;100036.34;4970961;28;20238;-69
2022/12/11 03:48:00;;;;;;;36.37;17.23;;;;;;;-1.11;85.08;100022.63;4971543;28;20708;-68
2022/12/11 03:50:30;;;;;;;38.93;18.07;;;;;;;-1.00;84.51;100024.06;4971928;28;20226;-69
2022/12/11 03:52:57;;;;;;;37.83;15.87;;;;;;;-1.05;84.48;100023.84;4971947;28;20710;-69
2022/12/11 03:55:25;;;;;;;37.67;16.33;;;;;;;-1.14;84.95;100017.25;4967811;28;20666;-69
2022/12/11 03:57:51;;;;;;;35.00;17.27;;;;;;;-1.17;85.52;100023.19;4969402;28;20196;-70
2022/12/11 04:00:20;;;;;;;37.17;16.60;;;;;;;-1.18;85.58;100018.81;4971812;28;20226;-69
2022/12/11 04:05:47;;;;;;;32.17;15.10;;;;;;;-1.12;84.83;100021.72;4970444;28;20288;-69
2022/12/11 04:08:14;;;;;;;35.83;16.37;;;;;;;-1.14;84.78;100019.88;4971165;28;20700;-69
2022/12/11 04:10:42;;;;;;;32.47;15.87;;;;;;;-1.17;85.26;100014.50;4969329;28;20252;-68
2022/12/11 04:13:09;;;;;;;38.47;17.27;;;;;;;-1.09;85.63;100018.41;4971953;28;20211;-69
2022/12/11 04:15:37;;;;;;;37.43;16.63;;;;;;;-1.04;85.21;100015.22;4971265;28;20573;-69
2022/12/11 04:26:22;;;;;;;38.37;17.53;;;;;;;-1.13;85.14;100009.56;4971791;28;20269;-69
2022/12/11 04:28:49;;;;;;;37.97;15.37;;;;;;;-1.11;85.67;100026.13;4971085;28;20312;-68
2022/12/11 04:31:20;;;;;;;37.40;17.20;;;;;;;-1.11;85.57;100013.13;4968409;28;20232;-69
2022/12/11 04:33:47;;;;;;;38.87;16.93;;;;;;;-1.12;85.98;100013.03;4970849;28;20244;-69
2022/12/11 04:36:14;;;;;;;33.40;16.70;;;;;;;-1.08;85.72;100017.59;4971642;28;20199;-68
2022/12/11 04:38:41;;;;;;;35.97;16.47;;;;;;;-1.03;85.12;100014.41;4970808;28;20302;-69
2022/12/11 04:41:11;;;;;;;32.80;16.30;;;;;;;-0.89;84.96;100016.84;4968070;28;20211;-69
2022/12/11 04:43:38;;;;;;;36.70;16.77;;;;;;;-0.87;84.69;100013.50;4954337;28;20206;-69
2022/12/11 04:46:19;;;;;;;33.27;15.27;;;;;;;-0.96;85.19;100008.72;4970551;28;20225;-68
2022/12/11 04:48:46;;;;;;;39.47;16.73;;;;;;;-1.12;85.39;99997.47;4952806;28;20608;-69
2022/12/11 04:51:19;;;;;;;32.80;16.53;;;;;;;-1.12;85.47;100008.75;4971167;28;20290;-69
2022/12/11 04:53:45;;;;;;;39.27;17.07;;;;;;;-1.14;85.57;100007.78;4953548;28;20741;-69
2022/12/11 04:56:14;;;;;;;33.30;16.30;;;;;;;-1.06;85.31;100013.38;4971004;28;20209;-69
2022/12/11 04:58:42;;;;;;;41.87;17.00;;;;;;;-1.05;85.28;100008.25;4968828;28;20757;-69
2022/12/11 05:01:11;;;;;;;34.87;15.87;;;;;;;-1.09;85.22;100002.81;4968888;28;20234;-69
2022/12/11 05:03:39;;;;;;;36.97;17.57;;;;;;;-1.07;85.54;100015.06;4971045;28;20198;-69
2022/12/11 05:06:07;;;;;;;34.23;16.53;;;;;;;-1.10;85.20;99978.53;4970285;28;20212;-69
2022/12/11 05:08:35;;;;;;;36.27;16.80;;;;;;;-1.07;85.13;100001.19;4966908;28;20221;-69
2022/12/11 05:11:04;;;;;;;38.27;18.07;;;;;;;-1.10;85.57;100006.22;4971141;28;20248;-69
2022/12/11 05:13:31;;;;;;;33.50;16.53;;;;;;;-1.10;85.58;100008.81;4970620;28;20260;-69
2022/12/11 05:15:58;;;;;;;41.40;17.30;;;;;;;-1.10;85.83;100007.13;4953478;28;20252;-69
2022/12/11 05:21:00;;;;;;;34.57;15.50;;;;;;;-1.17;86.18;99998.91;4964225;28;20223;-67
2022/12/11 05:23:28;;;;;;;37.33;17.67;;;;;;;-1.17;86.40;100005.00;4967797;28;20236;-69
2022/12/11 05:26:00;;;;;;;39.90;17.00;;;;;;;-1.15;86.65;99998.19;4964447;28;20626;-68
2022/12/11 05:28:28;;;;;;;31.27;16.27;;;;;;;-1.16;86.92;99982.53;4966222;28;20710;-69
2022/12/11 05:30:56;;;;;;;36.13;17.33;;;;;;;-1.13;87.06;99982.69;4944889;28;20203;-71
2022/12/11 05:33:23;;;;;;;32.20;16.10;;;;;;;-1.03;86.42;99982.34;4945075;28;20722;-67
2022/12/11 05:35:50;;;;;;;33.47;17.73;;;;;;;-1.06;85.78;99989.97;4943795;28;20299;-67
2022/12/11 05:38:17;;;;;;;31.50;17.13;;;;;;;-1.14;85.78;99980.91;4946269;28;20219;-67
2022/12/11 05:40:43;;;;;;;33.07;16.13;;;;;;;-1.26;85.76;99969.00;4946302;28;20254;-67
2022/12/11 05:43:10;;;;;;;32.47;16.53;;;;;;;-1.33;85.92;99971.22;4946262;28;20676;-67
2022/12/11 05:45:37;;;;;;;35.83;17.53;;;;;;;-1.39;86.33;99971.78;4945795;28;20700;-67
2022/12/11 05:48:03;;;;;;;31.10;14.83;;;;;;;-1.14;85.55;99984.38;4947418;28;20278;-67
2022/12/11 05:50:29;;;;;;;32.33;14.07;;;;;;;-1.15;85.20;99974.81;4943067;28;20225;-67
2022/12/11 05:52:56;;;;;;;30.53;14.37;;;;;;;-1.17;85.61;99979.03;4942203;28;20306;-70
2022/12/11 05:55:22;;;;;;;26.27;13.20;;;;;;;-1.41;85.75;99959.53;4944860;28;20194;-69
2022/12/11 05:57:48;;;;;;;27.43;13.47;;;;;;;-1.27;85.57;99966.34;4942707;28;20230;-68
2022/12/11 06:00:15;;;;;;;33.93;15.20;;;;;;;-1.30;85.66;99981.75;4944637;28;20261;-67
2022/12/11 06:02:41;;;;;;;35.53;16.03;;;;;;;-1.33;85.80;99966.03;4947685;28;20210;-67
2022/12/11 06:05:08;;;;;;;31.03;15.07;;;;;;;-1.33;85.63;99986.78;4943929;28;20641;-67
2022/12/11 06:07:35;;;;;;;31.37;14.27;;;;;;;-1.35;85.92;99986.72;4943704;28;20706;-69
2022/12/11 06:10:01;;;;;;;29.13;15.53;;;;;;;-1.35;86.05;99981.53;4938409;28;20258;-68
2022/12/11 06:12:28;;;;;;;34.90;16.13;;;;;;;-1.34;86.51;99980.72;4943578;28;20226;-67
2022/12/11 06:14:55;;;;;;;31.97;15.80;;;;;;;-1.33;86.55;99982.50;4944404;28;20238;-70
2022/12/11 06:17:21;;;;;;;34.20;16.80;;;;;;;-1.35;86.72;99963.34;4941609;28;20702;-71
2022/12/11 06:19:47;;;;;;;36.20;17.57;;;;;;;-1.30;86.62;99969.66;4944550;28;20303;-70
2022/12/11 06:22:14;;;;;;;34.23;14.77;;;;;;;-1.34;86.44;99972.91;4948465;28;20249;-70
2022/12/11 06:24:40;;;;;;;30.67;15.57;;;;;;;-1.30;86.84;99973.97;4941666;28;20227;-70
2022/12/11 06:27:07;;;;;;;32.30;16.30;;;;;;;-1.29;86.26;99981.84;4919738;28;20198;-69
2022/12/11 06:29:33;;;;;;;32.57;15.70;;;;;;;-1.30;86.17;99980.06;4937650;28;20226;-70
2022/12/11 06:31:59;;;;;;;30.10;15.67;;;;;;;-1.28;86.85;99980.13;4942911;28;20206;-69
2022/12/11 06:34:26;;;;;;;32.40;16.47;;;;;;;-1.22;86.32;99975.25;4941513;28;21438;-70
2022/12/11 06:36:52;;;;;;;34.70;16.80;;;;;;;-1.26;86.45;99966.41;4944286;28;20286;-71
2022/12/11 06:39:19;;;;;;;35.33;16.00;;;;;;;-1.20;86.41;99970.16;4940000;28;20695;-71
2022/12/11 06:41:45;;;;;;;36.03;17.87;;;;;;;-1.30;86.37;99946.28;4941179;28;20650;-72
2022/12/11 06:44:11;;;;;;;36.83;17.57;;;;;;;-1.17;86.35;99959.94;4939680;28;20226;-71
2022/12/11 06:46:38;;;;;;;32.43;16.27;;;;;;;-1.11;86.00;99966.34;4942367;28;20199;-70
2022/12/11 06:49:04;;;;;;;34.47;17.13;;;;;;;-1.08;85.55;99957.81;4942640;28;20227;-70
2022/12/11 06:51:31;;;;;;;31.83;15.70;;;;;;;-0.89;84.73;99973.53;4950004;28;20235;-69
2022/12/11 06:53:57;;;;;;;33.07;15.80;;;;;;;-0.94;84.68;99972.41;4942947;28;20294;-72
2022/12/11 06:56:24;;;;;;;32.77;15.27;;;;;;;-1.09;84.72;99946.53;4943783;28;20287;-71
2022/12/11 06:58:51;;;;;;;30.63;15.10;;;;;;;-0.93;84.74;99966.41;4942938;28;20218;-70
2022/12/11 07:01:21;;;;;;;33.13;15.63;;;;;;;-0.90;84.07;99968.28;4943848;28;20203;-69
2022/12/11 07:03:51;;;;;;;32.30;15.70;;;;;;;-0.92;84.35;99959.50;4946372;28;20217;-71
2022/12/11 07:06:17;;;;;;;30.63;14.83;;;;;;;-0.98;84.73;99968.78;4947713;28;20727;-72
2022/12/11 07:08:44;;;;;;;32.83;15.40;;;;;;;-1.09;84.76;99967.34;4948310;28;20228;-70
2022/12/11 07:11:13;;;;;;;29.00;14.20;;;;;;;-1.09;85.72;99969.03;4951077;28;20675;-70
2022/12/11 07:13:41;;;;;;;32.37;15.10;;;;;;;-1.08;86.00;99969.13;4944813;28;20206;-69
2022/12/11 07:16:11;;;;;;;31.50;15.43;;;;;;;-0.97;85.41;99978.34;4941605;28;20204;-70
2022/12/11 07:18:42;;;;;;;29.97;15.27;;;;;;;-1.03;85.23;99964.16;4947398;28;20722;-70
2022/12/11 07:21:13;;;;;;;35.17;16.53;;;;;;;-0.99;85.41;99972.19;4942718;28;20255;-71
2022/12/11 07:23:39;;;;;;;32.77;15.10;;;;;;;-0.83;84.03;99966.06;4943486;28;20727;-69
2022/12/11 07:26:08;;;;;;;32.97;15.07;;;;;;;-0.87;84.29;99973.63;4941201;28;20199;-69
2022/12/11 07:28:35;;;;;;;36.10;16.87;;;;;;;-0.88;84.21;99983.13;4946514;28;20215;-70
2022/12/11 07:31:06;;;;;;;29.13;14.53;;;;;;;-0.88;84.00;99977.94;4943914;28;20202;-69
2022/12/11 07:33:33;;;;;;;31.07;14.70;;;;;;;-0.96;84.53;99967.16;4952616;28;20303;-69
2022/12/11 07:36:03;;;;;;;35.33;16.17;;;;;;;-0.93;84.45;99965.53;4940216;28;20571;-70
2022/12/11 07:38:29;;;;;;;36.13;16.47;;;;;;;-0.86;84.04;99965.91;4940169;28;20287;-69
2022/12/11 07:41:00;;;;;;;33.93;15.17;;;;;;;-0.82;84.32;99969.56;4941203;28;20255;-70
2022/12/11 07:43:27;;;;;;;33.17;15.33;;;;;;;-0.83;84.45;99973.84;4942733;28;20203;-69
2022/12/11 07:45:53;;;;;;;38.47;17.23;;;;;;;-0.77;84.83;99988.91;4943359;28;20292;-70
2022/12/11 07:48:19;;;;;;;37.23;16.40;;;;;;;-0.84;84.63;99965.97;4943064;28;20220;-70
2022/12/11 07:50:46;;;;;;;36.47;18.00;;;;;;;-0.72;84.92;99988.31;4941332;28;20650;-70
2022/12/11 07:53:12;;;;;;;35.70;17.30;;;;;;;-0.50;83.21;99984.19;4940447;28;20210;-72
2022/12/11 07:55:38;;;;;;;33.43;16.87;;;;;;;-0.58;83.38;99978.63;4944578;28;20298;-70
2022/12/11 07:58:05;;;;;;;34.47;16.97;;;;;;;-0.51;83.20;99979.81;4937971;28;20676;-70
2022/12/11 08:00:31;;;;;;;34.70;16.30;;;;;;;-0.67;83.30;99970.34;4951518;28;20231;-70
2022/12/11 08:02:57;;;;;;;32.97;15.47;;;;;;;-0.66;83.45;99974.75;4927567;28;20349;-70
2022/12/11 08:05:24;;;;;;;38.07;17.20;;;;;;;-0.68;83.76;99984.19;4938613;28;20235;-69
2022/12/11 08:07:50;;;;;;;37.43;16.53;;;;;;;-0.70;83.97;99980.59;4929610;28;20282;-70
2022/12/11 08:10:17;;;;;;;34.03;16.40;;;;;;;-0.69;83.89;99993.69;4952165;28;20303;-70
2022/12/11 08:12:43;;;;;;;34.60;15.20;;;;;;;-0.60;83.28;99988.06;4951683;28;20281;-69
2022/12/11 08:15:10;;;;;;;31.33;15.07;;;;;;;-0.60;83.94;99995.84;4933810;29;20287;-71
2022/12/11 08:17:37;;;;;;;32.53;16.43;;;;;;;-0.59;84.18;99999.34;4950622;28;20202;-70
2022/12/11 08:20:07;;;;;;;34.33;16.90;;;;;;;-0.56;83.11;99999.50;4939466;28;20316;-71
2022/12/11 08:22:34;;;;;;;34.53;16.17;;;;;;;-0.57;83.63;100003.81;4952368;28;20207;-71
2022/12/11 08:25:00;;;;;;;34.83;17.47;;;;;;;-0.51;83.83;100008.41;4950169;28;20333;-70
2022/12/11 08:27:29;;;;;;;32.83;16.70;;;;;;;-0.53;83.83;99997.06;4950389;28;20210;-70
2022/12/11 08:29:55;;;;;;;35.43;16.57;;;;;;;-0.51;82.75;99983.31;4950790;28;20311;-70
2022/12/11 08:32:22;;;;;;;37.03;16.33;;;;;;;-0.34;81.84;99986.78;4946430;28;20203;-71
2022/12/11 08:34:50;;;;;;;33.77;16.60;;;;;;;-0.28;81.67;99988.78;4948530;28;20229;-71
2022/12/11 08:37:16;;;;;;;33.47;15.70;;;;;;;-0.29;82.09;99989.59;4949474;28;20203;-72
2022/12/11 08:39:43;;;;;;;33.80;16.43;;;;;;;-0.20;81.52;99988.34;4948209;28;20258;-71
2022/12/11 08:42:10;;;;;;;37.60;16.87;;;;;;;-0.14;81.75;99995.56;4947272;28;20211;-69
2022/12/11 08:44:36;;;;;;;38.73;16.30;;;;;;;-0.22;82.22;99989.97;4948836;28;20230;-69
2022/12/11 08:47:02;;;;;;;33.30;17.37;;;;;;;-0.19;82.41;99997.03;4946980;28;20290;-70
2022/12/11 08:49:29;;;;;;;36.23;17.40;;;;;;;-0.11;82.91;100000.91;4948100;28;20232;-73
2022/12/11 08:52:00;;;;;;;39.50;18.60;;;;;;;-0.04;82.74;99995.19;4943813;28;20225;-70
2022/12/11 08:54:26;;;;;;;37.83;17.93;;;;;;;0.05;82.67;99999.97;4948451;28;20231;-70
2022/12/11 08:56:52;;;;;;;44.13;19.57;;;;;;;0.01;82.44;99985.91;4945393;28;20252;-70
2022/12/11 08:59:24;;;;;;;42.77;20.63;;;;;;;0.08;82.51;99981.88;4946952;28;20243;-70
2022/12/11 09:01:51;;;;;;;41.53;18.87;;;;;;;0.26;80.02;99973.22;4944240;28;20217;-69
2022/12/11 09:04:17;;;;;;;37.13;18.63;;;;;;;0.34;80.34;99972.69;4946486;28;20284;-70
2022/12/11 09:06:43;;;;;;;38.60;18.37;;;;;;;0.46;80.31;99982.00;4944951;28;20670;-70
2022/12/11 09:09:10;;;;;;;40.83;20.13;;;;;;;0.49;80.20;99976.94;4944639;28;20277;-70
2022/12/11 09:11:36;;;;;;;46.10;20.97;;;;;;;0.63;80.29;99975.84;4944362;28;20260;-69
2022/12/11 09:14:04;;;;;;;51.13;21.13;;;;;;;0.61;80.14;99960.97;4942544;28;20234;-69
2022/12/11 09:16:36;;;;;;;40.30;19.63;;;;;;;0.85;79.40;99982.03;4942994;28;20734;-69
2022/12/11 09:19:03;;;;;;;42.13;18.67;;;;;;;0.95;77.47;99965.97;4938674;28;20649;-70
2022/12/11 09:21:29;;;;;;;35.23;18.67;;;;;;;1.07;77.87;99973.44;4942686;28;20666;-70
2022/12/11 09:23:59;;;;;;;35.33;18.03;;;;;;;1.10;76.49;99974.47;4942760;28;20703;-69
2022/12/11 09:26:26;;;;;;;37.87;19.33;;;;;;;1.12;76.56;99969.31;4945151;28;20252;-68
2022/12/11 09:28:53;;;;;;;39.97;19.13;;;;;;;0.96;75.95;99972.09;4924225;28;20316;-69
2022/12/11 09:31:23;;;;;;;30.47;16.73;;;;;;;0.90;76.56;99981.41;4944061;28;20229;-70
2022/12/11 09:33:55;;;;;;;32.73;17.33;;;;;;;0.96;77.12;99978.19;4944539;28;20233;-70
2022/12/11 09:36:22;;;;;;;33.20;16.67;;;;;;;1.09;76.31;99974.41;4946157;28;20265;-69
2022/12/11 09:38:48;;;;;;;34.47;18.03;;;;;;;1.04;76.85;99986.34;4925287;28;20305;-71
2022/12/11 09:41:20;;;;;;;30.50;15.83;;;;;;;1.00;76.96;99984.44;4941735;28;20199;-69
2022/12/11 09:44:11;;;;;;;33.97;17.23;;;;;;;1.21;76.52;99983.69;4943216;28;20205;-70
2022/12/11 09:46:39;;;;;;;33.30;15.50;;;;;;;1.47;74.91;99979.56;4942726;28;20205;-70
2022/12/11 09:49:23;;;;;;;28.17;14.97;;;;;;;1.42;74.66;99974.97;4939432;28;20234;-69
2022/12/11 09:52:04;;;;;;;34.00;15.53;;;;;;;1.41;74.70;99979.31;4940919;28;20277;-69
2022/12/11 09:54:31;;;;;;;34.07;16.47;;;;;;;1.24;75.01;99970.78;4941321;28;20275;-70
2022/12/11 09:57:28;;;;;;;32.77;17.27;;;;;;;1.16;76.24;99964.31;4939290;28;20714;-69
2022/12/11 10:00:12;;;;;;;33.57;17.23;;;;;;;1.23;75.84;99966.38;4937670;28;20227;-70
2022/12/11 10:02:53;;;;;;;34.07;17.77;;;;;;;1.24;75.38;99962.94;4940829;28;20250;-70
2022/12/11 10:05:55;;;;;;;37.60;18.60;;;;;;;1.28;76.24;99956.16;4939259;28;20198;-69
2022/12/11 10:08:37;;;;;;;38.03;18.87;;;;;;;1.29;75.65;99950.09;4944600;28;20216;-69
2022/12/11 10:11:29;;;;;;;38.50;18.77;;;;;;;1.28;75.75;99957.88;4942547;28;20225;-69
2022/12/11 10:14:24;;;;;;;35.83;18.20;;;;;;;1.21;76.58;99962.81;4940603;28;20743;-70
2022/12/11 10:16:56;;;;;;;43.43;17.90;;;;;;;1.21;76.16;99960.22;4937869;28;20200;-68
2022/12/11 10:19:28;;;;;;;36.77;17.47;;;;;;;1.17;76.73;99957.38;4946557;28;20225;-68
2022/12/11 10:21:56;;;;;;;37.97;18.13;;;;;;;1.09;76.46;99964.88;4941924;28;20622;-68
2022/12/11 10:24:41;;;;;;;34.37;18.13;;;;;;;1.09;76.40;99962.25;4941920;28;20198;-68
2022/12/11 10:27:33;;;;;;;34.40;17.67;;;;;;;0.92;76.65;99953.72;4943438;28;20657;-68
2022/12/11 10:30:14;;;;;;;37.67;17.83;;;;;;;0.91;76.81;99956.25;4940350;28;20269;-69
2022/12/11 10:32:52;;;;;;;33.37;17.40;;;;;;;0.92;76.86;99951.09;4942271;28;20201;-69
2022/12/11 10:35:32;;;;;;;32.53;16.80;;;;;;;0.95;76.62;99945.13;4939072;28;20202;-68
2022/12/11 10:38:10;;;;;;;30.37;16.07;;;;;;;0.92;77.17;99950.22;4939340;28;20252;-69
2022/12/11 10:40:41;;;;;;;35.83;17.90;;;;;;;0.89;77.86;99948.34;4924957;28;20228;-68
2022/12/11 10:43:08;;;;;;;38.00;18.93;;;;;;;1.00;77.79;99943.59;4939374;28;20235;-68
2022/12/11 10:45:35;;;;;;;48.10;21.17;;;;;;;1.04;77.72;99942.91;4942539;28;20643;-68
2022/12/11 10:48:12;;;;;;;45.20;20.80;;;;;;;1.06;77.86;99935.16;4950914;28;20228;-68
2022/12/11 10:50:38;;;;;;;47.13;21.93;;;;;;;1.07;77.78;99929.13;4940028;28;20232;-68
2022/12/11 10:53:05;;;;;;;41.90;21.13;;;;;;;1.03;77.51;99922.88;4938345;28;20764;-68
2022/12/11 10:55:44;;;;;;;39.33;18.73;;;;;;;0.98;77.29;99931.34;4945477;28;20231;-68
2022/12/11 10:58:23;;;;;;;39.43;19.70;;;;;;;0.93;77.39;99939.84;4945148;28;20206;-69
2022/12/11 11:01:12;;;;;;;41.07;17.83;;;;;;;0.90;77.75;99937.09;4939301;28;20745;-68
2022/12/11 11:03:57;;;;;;;40.60;17.30;;;;;;;0.75;78.22;99936.41;4939499;28;20293;-68
2022/12/11 11:06:24;;;;;;;34.93;17.43;;;;;;;0.72;78.72;99937.97;4941213;28;20199;-68
2022/12/11 11:08:54;;;;;;;32.60;17.20;;;;;;;0.65;79.22;99933.31;4946108;28;20379;-69
2022/12/11 11:11:32;;;;;;;41.47;16.87;;;;;;;0.59;78.81;99924.41;4953382;28;20201;-68
2022/12/11 11:14:17;;;;;;;30.70;16.40;;;;;;;0.67;78.97;99926.47;4952843;28;20204;-68
2022/12/11 11:16:45;;;;;;;34.27;16.97;;;;;;;0.57;79.75;99920.84;4951478;28;20231;-68
2022/12/11 11:19:25;;;;;;;31.40;16.27;;;;;;;0.65;79.91;99922.91;4969164;23;20239;-66
2022/12/11 11:21:55;;;;;;;32.07;15.93;;;;;;;0.61;80.20;99914.94;4967422;28;20682;-66
2022/12/11 11:24:52;;;;;;;33.53;17.20;;;;;;;0.76;79.40;99919.94;4965269;28;20236;-66
2022/12/11 11:27:44;;;;;;;34.63;16.70;;;;;;;0.62;80.20;99911.53;4943187;28;20195;-66
2022/12/11 11:30:55;;;;;;;31.20;15.13;;;;;;;0.66;79.96;99909.06;4950117;28;20250;-66
2022/12/11 11:33:23;;;;;;;33.70;14.90;;;;;;;0.55;80.23;99912.06;4913942;29;20201;-66
2022/12/11 11:35:52;;;;;;;31.47;15.67;;;;;;;0.56;80.18;99907.75;4949905;28;20226;-66
2022/12/11 11:38:22;;;;;;;33.27;16.47;;;;;;;0.66;79.89;99914.25;4972131;28;20648;-66
2022/12/11 11:41:14;;;;;;;33.90;16.17;;;;;;;0.67;80.21;99903.91;4970414;28;20574;-66
2022/12/11 11:43:53;;;;;;;36.13;17.03;;;;;;;0.73;80.66;99905.88;4971484;28;20210;-66
2022/12/11 11:46:44;;;;;;;35.23;17.93;;;;;;;0.75;80.24;99906.84;4968316;28;20212;-66